Latest Weather Observations for Falls Creek

IDV60801

Issued at 6:02 am EST Friday 26 August 2016 (issued every 30 minutes, with the page automatically refreshed every 10 minutes)

About weather observations | Map of weather stations | Latest weather observations for VIC | Other Formats
Station Details ID: 083084 Name: FALLS CREEK Lat: -36.87 Lon: 147.28 Height: 1765.0 m
Data from the previous 72 hours. | See also: Recent months at Falls Creek
Date/Time
EST
Temp
°C
App
Temp
°C
Dew
Point
°C
Rel
Hum
%
Delta-T
°C
Wind Press
QNH
hPa
Press
MSL
hPa
Rain since
9am
mm
Dir  Spd
km/h
Gust
km/h
Spd
kts
Gust
kts
26/06:00am -5.0 -9.3 -5.3 98 -0.1 SSE 9 15 5 8 1015.4 1017.5 0.8
26/05:30am -4.7 -10.5 -5.0 98 -0.1 SSE 17 20 9 11 1014.9 1017.1 0.8
26/05:00am -4.5 -9.6 -4.8 98 -0.1 SSE 13 20 7 11 1014.8 1016.9 0.8
26/04:30am -4.6 -11.8 -4.9 98 -0.1 S 24 32 13 17 1014.4 1016.6 0.8
26/04:00am -4.4 -12.7 -4.7 98 -0.1 S 30 35 16 19 1014.2 1016.3 0.8
26/03:30am -4.5 -12.8 -4.8 98 -0.1 S 30 39 16 21 1013.6 1015.7 0.8
26/03:00am -4.2 -12.5 -4.5 98 -0.1 S 30 35 16 19 1013.3 1015.4 0.8
26/02:30am -4.0 -13.2 -4.3 98 -0.1 SSE 35 46 19 25 1013.3 1015.4 0.8
26/02:00am -3.9 -12.1 -4.2 98 -0.1 SSE 30 37 16 20 1013.7 1015.8 0.8
26/01:30am -4.1 -12.3 -4.4 98 -0.1 SSE 30 41 16 22 1013.8 1015.9 0.8
26/01:00am -4.2 -13.4 -4.5 98 -0.1 S 35 48 19 26 1013.8 1015.9 0.8
26/12:30am -4.5 -13.7 -4.9 97 -0.1 S 35 43 19 23 1013.8 1015.9 0.8
26/12:00am -4.5 -13.2 -4.9 97 -0.1 S 32 44 17 24 1013.7 1015.8 0.8
 
Date/Time
EST
Temp
°C
App
Temp
°C
Dew
Point
°C
Rel
Hum
%
Delta-T
°C
Wind Press
QNH
hPa
Press
MSL
hPa
Rain since
9am
mm
Dir  Spd
km/h
Gust
km/h
Spd
kts
Gust
kts
25/11:30pm -4.3 -13.6 -5.0 95 0.0 S 35 44 19 24 1013.6 1015.7 0.8
25/11:00pm -4.2 -15.0 -5.0 94 0.1 S 43 54 23 29 1013.3 1015.4 0.8
25/10:30pm -4.4 -14.8 -5.2 94 0.1 S 41 52 22 28 1012.9 1014.9 0.8
25/10:00pm -4.4 -14.0 -5.1 95 0.0 S 37 50 20 27 1013.1 1015.2 0.8
25/09:30pm -4.5 -13.8 -5.5 93 0.1 S 35 44 19 24 1013.1 1015.2 0.8
25/09:00pm -4.4 -13.3 -5.2 94 0.1 S 33 46 18 25 1012.9 1014.9 0.8
25/08:30pm -4.4 -13.7 -5.1 95 0.0 S 35 50 19 27 1012.6 1014.7 0.8
25/08:00pm -4.5 -14.5 -5.2 95 0.0 S 39 56 21 30 1012.1 1014.2 0.8
25/07:30pm -4.4 -14.1 -5.2 94 0.1 S 37 46 20 25 1011.8 1013.8 0.8
25/07:00pm -4.1 -12.4 -4.6 96 0.0 S 30 37 16 20 1011.8 1013.8 0.8
25/06:30pm -4.0 -11.5 -5.0 93 0.2 S 26 37 14 20 1011.5 1013.6 0.8
25/06:00pm -4.1 -12.9 -4.5 97 0.0 SSW 33 43 18 23 1011.2 1013.2 0.8
25/05:30pm -3.4 -12.1 -5.1 88 0.4 SSW 32 37 17 20 1010.6 1012.6 0.8
25/05:00pm -3.2 -10.3 -4.6 90 0.3 S 24 33 13 18 1010.1 1012.1 0.8
25/04:30pm -2.5 -11.3 -4.5 86 0.6 SSW 33 41 18 22 1009.6 1011.6 0.8
25/04:00pm -2.9 -11.5 -4.5 89 0.4 S 32 37 17 20 1009.6 1011.6 0.8
25/03:30pm -2.8 -11.5 -5.0 85 0.6 S 32 39 17 21 1009.3 1011.2 0.8
25/03:00pm -3.8 -11.8 -5.6 87 0.4 SSW 28 33 15 18 1009.2 1011.1 0.8
25/02:37pm -3.9 -11.7 -4.2 98 -0.1 SW 28 46 15 25 1008.8 1010.7 0.6
25/02:30pm -3.2 -9.3 -3.6 97 0.0 SW 19 24 10 13 1009.4 1011.3 0.4
25/02:00pm -3.1 -8.1 -4.1 93 0.2 SW 13 26 7 14 1009.2 1011.1 0.0
25/01:30pm -2.1 -5.9 -3.7 89 0.5 SW 7 11 4 6 1009.2 1011.1 0.0
25/01:00pm -1.5 -5.3 -3.4 87 0.6 WSW 7 13 4 7 1008.9 1010.8 0.0
25/12:30pm -2.0 -6.2 -4.0 86 0.6 SSW 9 11 5 6 1009.3 1011.2 0.0
25/12:00pm -2.8 -7.5 -4.8 86 0.6 SSW 11 15 6 8 1009.8 1011.7 0.0
25/11:30am -2.7 -7.8 -4.9 85 0.6 SSW 13 17 7 9 1009.9 1011.8 0.0
25/11:00am -2.6 -8.4 -4.8 85 0.7 SW 17 24 9 13 1009.8 1011.7 0.0
25/10:30am -3.9 -9.1 -6.5 82 0.7 SW 13 17 7 9 1009.6 1011.6 0.0
25/10:00am -4.3 -10.3 -6.9 82 0.7 SSW 17 20 9 11 1009.4 1011.3 0.0
25/09:30am -4.7 -10.0 -7.0 84 0.5 SW 13 17 7 9 1009.3 1011.2 0.0
25/09:00am -4.1 -8.0 -6.5 83 0.6 WSW 6 11 3 6 1009.2 1011.1 0.0
25/08:30am -2.9 -6.1 -3.6 95 0.1 WNW 4 6 2 3 1008.9 1010.8 0.0
25/08:00am -3.9 -7.6 -4.7 94 0.1 NW 6 7 3 4 1008.7 1010.6 0.0
25/07:30am -4.9 -9.7 -5.6 95 0.0 WNW 11 13 6 7 1008.6 1010.5 0.0
25/07:00am -5.5 -10.7 -6.6 92 0.1 W 13 17 7 9 1008.2 1010.1 0.0
25/06:30am -4.5 -11.3 -5.3 94 0.1 WNW 22 26 12 14 1007.7 1009.6 0.0
25/06:00am -4.5 -10.9 -5.3 94 0.1 W 20 26 11 14 1007.5 1009.4 0.0
25/05:30am -4.4 -11.2 -5.4 93 0.1 WNW 22 28 12 15 1007.4 1009.2 0.0
25/05:00am -4.6 -10.9 -5.4 94 0.1 W 19 22 10 12 1007.3 1009.1 0.0
25/04:30am -4.8 -10.7 -5.6 94 0.1 W 17 22 9 12 1007.3 1009.1 0.0
25/04:00am -4.4 -9.9 -5.2 94 0.1 W 15 19 8 10 1007.4 1009.2 0.0
25/03:30am -4.6 -10.1 -5.4 94 0.1 W 15 17 8 9 1007.5 1009.4 0.0
25/03:00am -4.5 -8.4 -4.9 97 -0.1 SSW 7 11 4 6 1007.7 1009.6 0.0
25/02:30am -4.3 -8.6 -4.7 97 -0.1 S 9 11 5 6 1007.9 1009.7 0.0
25/02:00am -4.7 -9.8 -5.1 97 -0.1 S 13 17 7 9 1008.0 1009.9 0.0
25/01:30am -4.6 -10.4 -5.0 97 -0.1 S 17 19 9 10 1008.1 1010.0 0.0
25/01:00am -4.3 -10.1 -4.8 96 0.0 S 17 22 9 12 1008.3 1010.2 0.0
25/12:30am -3.9 -9.3 -4.2 98 -0.1 S 15 19 8 10 1008.3 1010.2 0.0
25/12:00am -3.7 -9.4 -4.0 98 -0.1 S 17 20 9 11 1008.5 1010.3 0.0
 
Date/Time
EST
Temp
°C
App
Temp
°C
Dew
Point
°C
Rel
Hum
%
Delta-T
°C
Wind Press
QNH
hPa
Press
MSL
hPa
Rain since
9am
mm
Dir  Spd
km/h
Gust
km/h
Spd
kts
Gust
kts
24/11:30pm -3.5 -9.6 -3.8 98 -0.1 S 19 20 10 11 1008.7 1010.6 0.0
24/11:00pm -3.2 -9.3 -3.5 98 0.0 S 19 22 10 12 1008.7 1010.6 0.0
24/10:30pm -2.9 -8.5 -3.2 98 0.0 SSE 17 24 9 13 1008.9 1010.8 0.0
24/10:00pm -2.6 -8.8 -2.9 98 0.0 SSE 20 26 11 14 1009.0 1011.0 0.0
24/09:30pm -2.4 -8.4 -2.7 98 0.0 SSE 19 24 10 13 1009.2 1011.1 0.0
24/09:00pm -2.0 -8.1 -2.3 98 0.0 S 20 26 11 14 1009.4 1011.3 0.0
24/08:30pm -1.9 -8.0 -2.0 99 -0.1 S 20 24 11 13 1009.4 1011.3 0.0
24/08:00pm -1.7 -7.7 -1.8 99 0.0 S 20 24 11 13 1009.3 1011.2 0.0
24/07:30pm -1.4 -6.4 -1.5 99 0.0 SSE 15 22 8 12 1009.4 1011.3 0.0
24/07:00pm -1.1 -6.5 -1.2 99 0.0 S 17 22 9 12 1009.4 1011.3 0.0
24/06:30pm -0.8 -5.8 -0.9 99 0.0 SSE 15 20 8 11 1009.0 1011.0 0.0
24/06:00pm -0.6 -4.8 -0.7 99 0.0 SSE 11 17 6 9 1008.9 1010.8 0.0
24/05:30pm -0.5 -4.3 -0.6 99 0.0 SSE 9 15 5 8 1008.9 1010.8 0.0
24/05:00pm -0.2 -3.9 -0.3 99 0.0 SE 9 13 5 7 1008.9 1010.8 0.0
24/04:30pm -0.1 -3.8 -0.2 99 0.0 SE 9 15 5 8 1009.0 1011.0 0.0
24/04:00pm 0.2 -2.2 -0.1 98 0.1 SSW 2 9 1 5 1009.2 1011.1 0.0
24/03:30pm 0.2 -3.1 0.1 99 0.0 WNW 7 9 4 5 1009.2 1011.1 0.0
24/03:00pm 0.2 -2.9 -0.1 98 0.1 WSW 6 9 3 5 1009.2 1011.1 0.0
24/02:30pm 0.0 -3.2 -0.4 97 0.2 W 6 7 3 4 1009.4 1011.3 0.0
24/02:00pm -0.3 -3.8 -1.0 95 0.3 SW 7 11 4 6 1009.6 1011.6 0.0
24/01:30pm 0.1 -3.3 -0.3 97 0.2 WSW 7 9 4 5 1009.9 1011.8 0.0
24/01:00pm 0.2 -3.1 -0.1 98 0.1 WNW 7 11 4 6 1010.1 1012.1 0.0
24/12:30pm 0.1 -4.0 -0.2 98 0.1 NW 11 15 6 8 1010.6 1012.6 0.0
24/12:00pm 0.1 -4.4 -0.2 98 0.1 NW 13 19 7 10 1011.1 1013.1 0.0
24/11:30am -0.1 -3.9 -0.4 98 0.1 NNW 9 17 5 9 1011.4 1013.5 0.0
24/11:00am -0.1 -4.6 -0.4 98 0.1 N 13 17 7 9 1011.5 1013.6 0.0
24/10:30am -0.2 -3.6 -0.3 99 0.0 NNW 7 13 4 7 1011.8 1013.8 0.0
24/10:00am -0.7 -3.9 -0.8 99 0.0 NNW 6 9 3 5 1011.9 1013.9 0.0
24/09:30am -1.1 -4.4 -1.4 98 0.1 W 6 7 3 4 1012.1 1014.2 0.0
24/09:00am -1.2 -4.5 -1.5 98 0.1 NNW 6 7 3 4 1012.5 1014.6 0.6
24/08:30am -0.7 -4.5 -0.8 99 0.0 NNW 9 13 5 7 1012.6 1014.7 0.6
24/08:00am -1.2 -5.1 -1.5 98 0.1 NNW 9 13 5 7 1012.6 1014.7 0.6
24/07:30am -2.2 -6.2 -2.5 98 0.0 NW 9 13 5 7 1012.5 1014.6 0.6
24/07:00am -2.5 -6.9 -2.8 98 0.0 NNW 11 15 6 8 1012.5 1014.6 0.6
24/06:30am -2.9 -7.0 -3.2 98 0.0 NNW 9 13 5 7 1012.4 1014.4 0.6
24/06:00am -3.3 -7.1 -3.6 98 0.0 NW 7 11 4 6 1012.4 1014.4 0.6
24/05:30am -3.0 -6.7 -3.3 98 0.0 NNW 7 9 4 5 1012.3 1014.3 0.6
24/05:00am -3.0 -6.7 -3.3 98 0.0 NNW 7 9 4 5 1012.3 1014.3 0.6
24/04:30am -2.9 -6.6 -3.2 98 0.0 NNW 7 9 4 5 1012.3 1014.3 0.6
24/04:00am -2.9 -6.4 -3.2 98 0.0 N 6 7 3 4 1012.4 1014.4 0.6
24/03:30am -2.9 -6.4 -3.2 98 0.0 N 6 7 3 4 1012.4 1014.4 0.6
24/03:00am -2.8 -6.5 -3.1 98 0.0 NNW 7 9 4 5 1012.7 1014.8 0.6
24/02:30am -3.2 -7.7 -3.5 98 0.0 NW 11 13 6 7 1013.1 1015.2 0.6
24/02:00am -2.7 -6.2 -3.0 98 0.0 N 6 7 3 4 1013.5 1015.6 0.6
24/01:30am -2.8 -6.3 -3.1 98 0.0 NNE 6 7 3 4 1013.6 1015.7 0.6
24/01:00am -2.6 -6.3 -2.9 98 0.0 N 7 9 4 5 1013.8 1015.9 0.6
24/12:30am -2.7 -6.8 -3.0 98 0.0 NNE 9 9 5 5 1014.0 1016.2 0.6
24/12:00am -2.4 -6.1 -2.7 98 0.0 N 7 9 4 5 1014.3 1016.4 0.6
 
Date/Time
EST
Temp
°C
App
Temp
°C
Dew
Point
°C
Rel
Hum
%
Delta-T
°C
Wind Press
QNH
hPa
Press
MSL
hPa
Rain since
9am
mm
Dir  Spd
km/h
Gust
km/h
Spd
kts
Gust
kts
23/11:30pm -2.4 -6.1 -2.7 98 0.0 N 7 9 4 5 1014.5 1016.7 0.6
23/11:00pm -3.4 -6.2 -3.7 98 -0.1 E 2 4 1 2 1014.5 1016.7 0.6
23/10:30pm -2.6 -6.1 -2.9 98 0.0 S 6 7 3 4 1014.6 1016.8 0.6
23/10:00pm -2.2 -6.2 -2.5 98 0.0 SSE 9 11 5 6 1014.4 1016.6 0.6
23/09:30pm -1.7 -6.0 -1.8 99 0.0 SSE 11 15 6 8 1014.6 1016.8 0.6
23/09:00pm -1.7 -6.4 -1.8 99 0.0 S 13 17 7 9 1014.5 1016.7 0.6
23/08:30pm -1.9 -5.9 -2.0 99 -0.1 S 9 13 5 7 1014.6 1016.8 0.6
23/08:00pm -1.8 -5.8 -1.9 99 -0.1 S 9 11 5 6 1014.5 1016.7 0.6
23/07:30pm -2.0 -7.1 -2.3 98 0.0 S 15 20 8 11 1014.2 1016.3 0.6
23/07:00pm -2.4 -6.8 -2.7 98 0.0 SSW 11 15 6 8 1014.0 1016.2 0.6
23/06:30pm -2.2 -7.8 -2.5 98 0.0 SSW 17 22 9 12 1013.9 1016.1 0.6
23/06:00pm -1.9 -7.4 -2.2 98 0.0 SSW 17 20 9 11 1013.8 1015.9 0.6
23/05:30pm -0.9 -4.2 -1.0 99 0.0 W 6 7 3 4 1014.4 1016.6 0.6
23/05:00pm -0.5 -4.7 -0.6 99 0.0 NW 11 15 6 8 1014.5 1016.7 0.6
23/04:30pm -0.2 -4.3 -0.3 99 0.0 NNW 11 17 6 9 1014.4 1016.6 0.2
23/04:00pm 0.0 -3.1 -0.1 99 0.0 NNW 6 13 3 7 1013.9 1016.1 0.2
23/03:30pm -0.1 -3.3 -0.2 99 0.0 W 6 11 3 6 1013.8 1015.9 0.2
23/03:00pm -0.6 -2.7 -0.7 99 0.0 CALM 0 0 0 0 1013.7 1015.8 0.0
23/02:30pm -0.9 -4.2 -1.2 98 0.1 SSE 6 7 3 4 1013.7 1015.8 0.0
23/02:00pm -0.3 -3.1 -0.4 99 0.0 ESE 4 9 2 5 1013.6 1015.7 0.0
23/01:30pm -1.3 -4.6 -1.4 99 0.0 S 6 7 3 4 1013.3 1015.4 0.0
23/01:00pm -0.9 -4.4 -1.0 99 0.0 SSW 7 9 4 5 1013.3 1015.4 0.0
23/12:30pm -0.5 -3.7 -0.6 99 0.0 SE 6 7 3 4 1013.5 1015.6 0.0
23/12:00pm -0.1 -2.9 -0.2 99 0.0 ESE 4 6 2 3 1013.7 1015.8 0.0
23/11:30am -0.4 -3.2 -0.5 99 0.0 E 4 9 2 5 1013.8 1015.9 0.0
23/11:00am -1.3 -6.0 -1.6 98 0.0 SSE 13 19 7 10 1013.7 1015.8 0.0
23/10:30am -1.5 -7.0 -1.8 98 0.0 S 17 22 9 12 1013.3 1015.4 0.0
23/10:00am -1.5 -6.6 -1.6 99 0.0 SSE 15 20 8 11 1013.5 1015.6 0.0
23/09:30am -1.8 -6.5 -2.1 98 0.0 SSE 13 17 7 9 1013.6 1015.7 0.0
23/09:00am -2.2 -7.0 -2.5 98 0.0 SSE 13 17 7 9 1013.6 1015.7 0.6
23/08:30am -2.5 -6.6 -2.8 98 0.0 SSE 9 11 5 6 1013.5 1015.6 0.6
23/08:00am -2.4 -8.4 -2.7 98 0.0 SSE 19 22 10 12 1013.1 1015.2 0.6
23/07:30am -2.4 -8.5 -2.7 98 0.0 S 20 26 11 14 1012.9 1014.9 0.6
23/07:00am -2.9 -9.5 -3.2 98 0.0 SSE 22 28 12 15 1012.5 1014.6 0.6
23/06:30am -2.6 -9.2 -2.9 98 0.0 S 22 26 12 14 1012.4 1014.4 0.6

Other Formats:

Comma delimited format used in spreadsheet applications
http://www.bom.gov.au/fwo/IDV60801/IDV60801.94903.axf

JavaScript Object Notation format (JSON) in row-major order
http://www.bom.gov.au/fwo/IDV60801/IDV60801.94903.json